sensor_id;sensor_type;location;lat;lon;timestamp;temperature;humidity
57843;DHT22;43673;51.058;3.734;2022-09-17T07:51:32;15.00;99.90
57843;DHT22;43673;51.058;3.734;2022-09-17T07:53:58;15.70;99.90
57843;DHT22;43673;51.058;3.734;2022-09-17T07:56:25;17.30;99.90
57843;DHT22;43673;51.058;3.734;2022-09-17T07:58:51;18.30;99.90
57843;DHT22;43673;51.058;3.734;2022-09-17T08:01:18;19.80;99.90
57843;DHT22;43673;51.058;3.734;2022-09-17T08:03:50;21.10;99.90
57843;DHT22;43673;51.058;3.734;2022-09-17T08:06:20;22.30;99.90
57843;DHT22;43673;51.058;3.734;2022-09-17T08:08:46;22.40;99.90
57843;DHT22;43673;51.058;3.734;2022-09-17T08:11:17;21.90;99.90
57843;DHT22;43673;51.058;3.734;2022-09-17T08:13:47;21.50;99.90
57843;DHT22;43673;51.058;3.734;2022-09-17T08:16:13;20.90;99.90
57843;DHT22;43673;51.058;3.734;2022-09-17T08:18:40;20.50;99.90
57843;DHT22;43673;51.058;3.734;2022-09-17T08:21:08;20.80;99.90
57843;DHT22;43673;51.058;3.734;2022-09-17T08:23:36;20.70;99.90
57843;DHT22;43673;51.058;3.734;2022-09-17T08:26:03;21.30;99.90
57843;DHT22;43673;51.058;3.734;2022-09-17T08:28:30;22.30;99.90
57843;DHT22;43673;51.058;3.734;2022-09-17T08:31:01;22.60;99.90
57843;DHT22;43673;51.058;3.734;2022-09-17T08:33:34;23.10;99.90
57843;DHT22;43673;51.058;3.734;2022-09-17T08:36:00;23.80;99.90
57843;DHT22;43673;51.058;3.734;2022-09-17T08:38:27;24.60;99.50
57843;DHT22;43673;51.058;3.734;2022-09-17T08:41:36;24.40;98.70
57843;DHT22;43673;51.058;3.734;2022-09-17T08:47:19;23.40;98.90
57843;DHT22;43673;51.058;3.734;2022-09-17T08:57:26;21.90;99.90
57843;DHT22;43673;51.058;3.734;2022-09-17T09:00:11;21.10;99.90
57843;DHT22;43673;51.058;3.734;2022-09-17T09:03:08;20.10;99.90
57843;DHT22;43673;51.058;3.734;2022-09-17T09:05:50;19.40;99.90
57843;DHT22;43673;51.058;3.734;2022-09-17T09:08:33;18.60;99.90
57843;DHT22;43673;51.058;3.734;2022-09-17T09:11:06;17.70;99.90
57843;DHT22;43673;51.058;3.734;2022-09-17T09:13:39;17.30;99.90
57843;DHT22;43673;51.058;3.734;2022-09-17T09:16:16;16.90;99.90
57843;DHT22;43673;51.058;3.734;2022-09-17T09:18:43;16.50;99.90
57843;DHT22;43673;51.058;3.734;2022-09-17T09:21:27;16.10;99.90
57843;DHT22;43673;51.058;3.734;2022-09-17T09:26:48;15.80;99.90
57843;DHT22;43673;51.058;3.734;2022-09-17T09:34:41;15.20;99.90
57843;DHT22;43673;51.058;3.734;2022-09-17T10:00:54;14.00;99.90
57843;DHT22;43673;51.058;3.734;2022-09-17T10:03:27;14.20;99.90
57843;DHT22;43673;51.058;3.734;2022-09-17T10:14:26;15.70;99.90
57843;DHT22;43673;51.058;3.734;2022-09-17T10:17:24;15.70;99.90
57843;DHT22;43673;51.058;3.734;2022-09-17T10:27:58;14.40;99.90
57843;DHT22;43673;51.058;3.734;2022-09-17T10:30:25;14.40;99.90
57843;DHT22;43673;51.058;3.734;2022-09-17T10:35:54;15.20;99.90
57843;DHT22;43673;51.058;3.734;2022-09-17T10:38:34;15.50;99.90
57843;DHT22;43673;51.058;3.734;2022-09-17T10:41:21;15.50;99.90
57843;DHT22;43673;51.058;3.734;2022-09-17T10:43:49;15.40;99.90
57843;DHT22;43673;51.058;3.734;2022-09-17T10:51:51;15.10;99.90
57843;DHT22;43673;51.058;3.734;2022-09-17T10:58:01;15.90;99.90
57843;DHT22;43673;51.058;3.734;2022-09-17T11:00:57;16.00;99.90
57843;DHT22;43673;51.058;3.734;2022-09-17T11:03:47;16.40;99.90
57843;DHT22;43673;51.058;3.734;2022-09-17T11:09:00;18.00;99.90
57843;DHT22;43673;51.058;3.734;2022-09-17T11:12:01;18.60;99.90
57843;DHT22;43673;51.058;3.734;2022-09-17T11:17:21;20.00;99.90
57843;DHT22;43673;51.058;3.734;2022-09-17T11:20:19;20.50;99.90
57843;DHT22;43673;51.058;3.734;2022-09-17T11:26:00;21.70;99.90
57843;DHT22;43673;51.058;3.734;2022-09-17T11:36:36;18.80;99.90
57843;DHT22;43673;51.058;3.734;2022-09-17T11:39:14;18.70;99.90
57843;DHT22;43673;51.058;3.734;2022-09-17T11:41:45;19.20;99.90
57843;DHT22;43673;51.058;3.734;2022-09-17T11:44:14;20.30;99.90
57843;DHT22;43673;51.058;3.734;2022-09-17T11:47:17;20.90;99.90
57843;DHT22;43673;51.058;3.734;2022-09-17T11:49:56;21.20;99.90
57843;DHT22;43673;51.058;3.734;2022-09-17T11:52:43;21.20;99.90
57843;DHT22;43673;51.058;3.734;2022-09-17T11:55:39;20.40;99.90
57843;DHT22;43673;51.058;3.734;2022-09-17T11:58:35;19.80;99.90
57843;DHT22;43673;51.058;3.734;2022-09-17T12:01:08;19.40;99.90
57843;DHT22;43673;51.058;3.734;2022-09-17T12:03:41;19.00;99.90
57843;DHT22;43673;51.058;3.734;2022-09-17T12:06:16;18.80;99.90
57843;DHT22;43673;51.058;3.734;2022-09-17T12:09:03;18.60;99.90
57843;DHT22;43673;51.058;3.734;2022-09-17T12:12:03;18.50;99.90
57843;DHT22;43673;51.058;3.734;2022-09-17T12:14:48;18.60;99.90
57843;DHT22;43673;51.058;3.734;2022-09-17T12:17:27;19.00;99.90
57843;DHT22;43673;51.058;3.734;2022-09-17T12:20:07;19.00;99.90
57843;DHT22;43673;51.058;3.734;2022-09-17T12:22:38;18.90;99.90
57843;DHT22;43673;51.058;3.734;2022-09-17T12:25:11;18.80;99.90
57843;DHT22;43673;51.058;3.734;2022-09-17T12:28:05;18.70;99.90
57843;DHT22;43673;51.058;3.734;2022-09-17T12:30:37;18.70;99.90
57843;DHT22;43673;51.058;3.734;2022-09-17T12:33:16;18.70;99.90
57843;DHT22;43673;51.058;3.734;2022-09-17T12:36:02;18.40;99.90
57843;DHT22;43673;51.058;3.734;2022-09-17T12:47:28;18.50;99.90
57843;DHT22;43673;51.058;3.734;2022-09-17T13:00:48;18.10;99.90
57843;DHT22;43673;51.058;3.734;2022-09-17T13:03:23;17.10;99.90
57843;DHT22;43673;51.058;3.734;2022-09-17T13:14:50;16.60;99.90
57843;DHT22;43673;51.058;3.734;2022-09-17T13:17:50;17.10;99.90
57843;DHT22;43673;51.058;3.734;2022-09-17T13:20:29;17.40;99.90
57843;DHT22;43673;51.058;3.734;2022-09-17T13:22:57;17.90;99.90
57843;DHT22;43673;51.058;3.734;2022-09-17T13:25:23;17.90;99.90
57843;DHT22;43673;51.058;3.734;2022-09-17T13:31:09;17.40;99.90
57843;DHT22;43673;51.058;3.734;2022-09-17T13:33:58;17.30;99.90
57843;DHT22;43673;51.058;3.734;2022-09-17T13:42:26;17.00;99.90
57843;DHT22;43673;51.058;3.734;2022-09-17T13:45:05;16.80;99.90
57843;DHT22;43673;51.058;3.734;2022-09-17T13:47:55;16.70;99.90
57843;DHT22;43673;51.058;3.734;2022-09-17T13:50:33;16.80;99.90
57843;DHT22;43673;51.058;3.734;2022-09-17T13:53:07;16.80;99.90
57843;DHT22;43673;51.058;3.734;2022-09-17T13:55:55;17.00;99.90
57843;DHT22;43673;51.058;3.734;2022-09-17T13:58:33;17.30;99.90
57843;DHT22;43673;51.058;3.734;2022-09-17T14:01:10;17.50;99.90
57843;DHT22;43673;51.058;3.734;2022-09-17T14:11:43;17.20;99.90
57843;DHT22;43673;51.058;3.734;2022-09-17T14:20:31;16.40;99.90
57843;DHT22;43673;51.058;3.734;2022-09-17T14:22:59;16.30;99.90
57843;DHT22;43673;51.058;3.734;2022-09-17T14:25:34;16.10;99.90
57843;DHT22;43673;51.058;3.734;2022-09-17T14:28:33;16.00;99.90
57843;DHT22;43673;51.058;3.734;2022-09-17T14:31:33;15.80;99.90
57843;DHT22;43673;51.058;3.734;2022-09-17T14:34:03;16.10;99.90
57843;DHT22;43673;51.058;3.734;2022-09-17T14:36:34;16.20;99.90
57843;DHT22;43673;51.058;3.734;2022-09-17T14:39:04;16.40;99.90
57843;DHT22;43673;51.058;3.734;2022-09-17T14:41:39;16.40;99.90
57843;DHT22;43673;51.058;3.734;2022-09-17T14:44:17;16.50;99.90
57843;DHT22;43673;51.058;3.734;2022-09-17T14:47:02;16.70;99.90
57843;DHT22;43673;51.058;3.734;2022-09-17T14:49:34;17.00;99.90
57843;DHT22;43673;51.058;3.734;2022-09-17T14:52:00;17.20;99.90
57843;DHT22;43673;51.058;3.734;2022-09-17T14:54:27;17.20;99.90
57843;DHT22;43673;51.058;3.734;2022-09-17T14:59:58;16.50;99.90
57843;DHT22;43673;51.058;3.734;2022-09-17T15:05:19;16.00;99.90
57843;DHT22;43673;51.058;3.734;2022-09-17T15:07:46;15.90;99.90
57843;DHT22;43673;51.058;3.734;2022-09-17T15:10:14;15.90;99.90
57843;DHT22;43673;51.058;3.734;2022-09-17T15:12:42;16.00;99.90
57843;DHT22;43673;51.058;3.734;2022-09-17T15:15:26;16.10;99.90
57843;DHT22;43673;51.058;3.734;2022-09-17T15:17:53;16.20;99.90
57843;DHT22;43673;51.058;3.734;2022-09-17T15:20:22;16.20;99.90
57843;DHT22;43673;51.058;3.734;2022-09-17T15:22:58;16.00;99.90
57843;DHT22;43673;51.058;3.734;2022-09-17T15:25:29;15.80;99.90
57843;DHT22;43673;51.058;3.734;2022-09-17T15:27:57;15.60;99.90
57843;DHT22;43673;51.058;3.734;2022-09-17T15:30:25;15.50;99.90
57843;DHT22;43673;51.058;3.734;2022-09-17T15:32:55;15.50;99.90
57843;DHT22;43673;51.058;3.734;2022-09-17T15:35:32;15.50;99.90
57843;DHT22;43673;51.058;3.734;2022-09-17T15:38:18;15.60;99.90
57843;DHT22;43673;51.058;3.734;2022-09-17T15:40:44;15.60;99.90
57843;DHT22;43673;51.058;3.734;2022-09-17T15:43:33;15.70;99.90
57843;DHT22;43673;51.058;3.734;2022-09-17T15:46:22;15.20;99.90
57843;DHT22;43673;51.058;3.734;2022-09-17T15:48:56;15.40;99.90
57843;DHT22;43673;51.058;3.734;2022-09-17T15:51:24;15.50;99.90
57843;DHT22;43673;51.058;3.734;2022-09-17T15:53:53;15.50;99.90
57843;DHT22;43673;51.058;3.734;2022-09-17T15:56:24;15.50;99.90
57843;DHT22;43673;51.058;3.734;2022-09-17T15:58:53;15.40;99.90
57843;DHT22;43673;51.058;3.734;2022-09-17T16:08:59;15.30;99.90
57843;DHT22;43673;51.058;3.734;2022-09-17T16:11:34;15.30;99.90
57843;DHT22;43673;51.058;3.734;2022-09-17T16:14:00;15.50;99.90
57843;DHT22;43673;51.058;3.734;2022-09-17T16:16:34;15.50;99.90
57843;DHT22;43673;51.058;3.734;2022-09-17T16:19:02;15.50;99.90
57843;DHT22;43673;51.058;3.734;2022-09-17T16:21:27;15.60;99.90
57843;DHT22;43673;51.058;3.734;2022-09-17T16:23:53;15.60;99.90
57843;DHT22;43673;51.058;3.734;2022-09-17T16:26:22;15.60;99.90
57843;DHT22;43673;51.058;3.734;2022-09-17T16:28:50;15.60;99.90
57843;DHT22;43673;51.058;3.734;2022-09-17T16:31:18;15.60;99.90
57843;DHT22;43673;51.058;3.734;2022-09-17T16:33:45;15.70;99.90
57843;DHT22;43673;51.058;3.734;2022-09-17T16:36:11;15.70;99.90
57843;DHT22;43673;51.058;3.734;2022-09-17T16:38:37;15.80;99.90
57843;DHT22;43673;51.058;3.734;2022-09-17T16:41:04;15.80;99.90
57843;DHT22;43673;51.058;3.734;2022-09-17T16:43:30;15.70;99.90
57843;DHT22;43673;51.058;3.734;2022-09-17T16:46:03;15.70;99.90
57843;DHT22;43673;51.058;3.734;2022-09-17T16:48:29;15.80;99.90
57843;DHT22;43673;51.058;3.734;2022-09-17T16:50:55;15.90;99.90
57843;DHT22;43673;51.058;3.734;2022-09-17T16:53:21;16.00;99.90
57843;DHT22;43673;51.058;3.734;2022-09-17T16:55:47;16.00;99.90
57843;DHT22;43673;51.058;3.734;2022-09-17T16:58:12;15.90;99.90
57843;DHT22;43673;51.058;3.734;2022-09-17T17:00:41;15.80;99.90
57843;DHT22;43673;51.058;3.734;2022-09-17T17:03:10;15.60;99.90
57843;DHT22;43673;51.058;3.734;2022-09-17T17:05:36;15.60;99.90
57843;DHT22;43673;51.058;3.734;2022-09-17T17:08:02;15.30;99.90
57843;DHT22;43673;51.058;3.734;2022-09-17T17:10:28;15.30;99.90
57843;DHT22;43673;51.058;3.734;2022-09-17T17:12:54;15.30;99.90
57843;DHT22;43673;51.058;3.734;2022-09-17T17:15:20;15.30;99.90
57843;DHT22;43673;51.058;3.734;2022-09-17T17:17:47;15.20;99.90
57843;DHT22;43673;51.058;3.734;2022-09-17T17:20:13;15.30;99.90
57843;DHT22;43673;51.058;3.734;2022-09-17T17:22:42;15.20;99.90
57843;DHT22;43673;51.058;3.734;2022-09-17T17:25:10;15.10;99.90
57843;DHT22;43673;51.058;3.734;2022-09-17T17:27:36;15.10;99.90
57843;DHT22;43673;51.058;3.734;2022-09-17T17:33:15;14.90;99.90
57843;DHT22;43673;51.058;3.734;2022-09-17T17:35:41;14.80;99.90
57843;DHT22;43673;51.058;3.734;2022-09-17T17:38:08;14.70;99.90
57843;DHT22;43673;51.058;3.734;2022-09-17T17:40:35;14.70;99.90
57843;DHT22;43673;51.058;3.734;2022-09-17T17:43:01;14.70;99.90
57843;DHT22;43673;51.058;3.734;2022-09-17T17:45:27;14.70;99.90
57843;DHT22;43673;51.058;3.734;2022-09-17T17:48:05;14.80;99.90
57843;DHT22;43673;51.058;3.734;2022-09-17T17:50:43;14.70;99.90
57843;DHT22;43673;51.058;3.734;2022-09-17T17:53:09;14.60;99.90
57843;DHT22;43673;51.058;3.734;2022-09-17T17:55:35;14.60;99.90
57843;DHT22;43673;51.058;3.734;2022-09-17T17:58:00;14.50;99.90
57843;DHT22;43673;51.058;3.734;2022-09-17T18:00:26;14.40;99.90
57843;DHT22;43673;51.058;3.734;2022-09-17T18:02:53;14.30;99.90
57843;DHT22;43673;51.058;3.734;2022-09-17T18:05:19;14.30;99.90
57843;DHT22;43673;51.058;3.734;2022-09-17T18:07:45;14.30;99.90
57843;DHT22;43673;51.058;3.734;2022-09-17T18:10:10;14.30;99.90
57843;DHT22;43673;51.058;3.734;2022-09-17T18:12:37;14.20;99.90
57843;DHT22;43673;51.058;3.734;2022-09-17T18:15:05;14.20;99.90
57843;DHT22;43673;51.058;3.734;2022-09-17T18:17:31;14.20;99.90
57843;DHT22;43673;51.058;3.734;2022-09-17T18:19:57;14.10;99.90
57843;DHT22;43673;51.058;3.734;2022-09-17T18:22:23;14.10;99.90
57843;DHT22;43673;51.058;3.734;2022-09-17T18:24:49;14.10;99.90
57843;DHT22;43673;51.058;3.734;2022-09-17T18:27:15;14.10;99.90
57843;DHT22;43673;51.058;3.734;2022-09-17T18:29:40;14.10;99.90
57843;DHT22;43673;51.058;3.734;2022-09-17T18:32:06;14.00;99.90
57843;DHT22;43673;51.058;3.734;2022-09-17T18:34:32;14.00;99.90
57843;DHT22;43673;51.058;3.734;2022-09-17T18:36:58;14.10;99.90
57843;DHT22;43673;51.058;3.734;2022-09-17T18:39:24;14.10;99.90
57843;DHT22;43673;51.058;3.734;2022-09-17T18:41:50;14.10;99.90
57843;DHT22;43673;51.058;3.734;2022-09-17T18:44:16;14.10;99.90
57843;DHT22;43673;51.058;3.734;2022-09-17T18:46:43;14.00;99.90
57843;DHT22;43673;51.058;3.734;2022-09-17T18:49:09;14.00;99.90
57843;DHT22;43673;51.058;3.734;2022-09-17T18:51:35;14.10;99.90
57843;DHT22;43673;51.058;3.734;2022-09-17T18:54:01;14.00;99.90
57843;DHT22;43673;51.058;3.734;2022-09-17T18:56:29;13.90;99.90
57843;DHT22;43673;51.058;3.734;2022-09-17T18:58:58;13.90;99.90
57843;DHT22;43673;51.058;3.734;2022-09-17T19:01:26;13.90;99.90
57843;DHT22;43673;51.058;3.734;2022-09-17T19:03:53;13.90;99.90
57843;DHT22;43673;51.058;3.734;2022-09-17T19:06:19;14.00;99.90
57843;DHT22;43673;51.058;3.734;2022-09-17T19:08:45;14.00;99.90
57843;DHT22;43673;51.058;3.734;2022-09-17T19:11:11;13.90;99.90
57843;DHT22;43673;51.058;3.734;2022-09-17T19:16:05;14.20;99.90
57843;DHT22;43673;51.058;3.734;2022-09-17T19:18:33;14.20;99.90
57843;DHT22;43673;51.058;3.734;2022-09-17T19:21:09;14.20;99.90
57843;DHT22;43673;51.058;3.734;2022-09-17T19:23:42;14.20;99.90
57843;DHT22;43673;51.058;3.734;2022-09-17T19:26:10;14.20;99.90
57843;DHT22;43673;51.058;3.734;2022-09-17T19:28:36;14.20;99.90
57843;DHT22;43673;51.058;3.734;2022-09-17T19:31:10;14.10;99.90
57843;DHT22;43673;51.058;3.734;2022-09-17T19:33:46;14.10;99.90
57843;DHT22;43673;51.058;3.734;2022-09-17T19:36:32;13.90;99.90
57843;DHT22;43673;51.058;3.734;2022-09-17T19:38:58;14.00;99.90
57843;DHT22;43673;51.058;3.734;2022-09-17T19:41:24;13.90;99.90
57843;DHT22;43673;51.058;3.734;2022-09-17T19:43:53;13.80;99.90
57843;DHT22;43673;51.058;3.734;2022-09-17T19:46:24;13.80;99.90
57843;DHT22;43673;51.058;3.734;2022-09-17T19:48:51;13.90;99.90
57843;DHT22;43673;51.058;3.734;2022-09-17T19:51:20;14.00;99.90
57843;DHT22;43673;51.058;3.734;2022-09-17T19:53:53;13.90;99.90
57843;DHT22;43673;51.058;3.734;2022-09-17T19:56:37;14.00;99.90
57843;DHT22;43673;51.058;3.734;2022-09-17T19:59:04;14.00;99.90
57843;DHT22;43673;51.058;3.734;2022-09-17T20:01:30;14.10;99.90
57843;DHT22;43673;51.058;3.734;2022-09-17T20:03:59;14.20;99.90
57843;DHT22;43673;51.058;3.734;2022-09-17T20:06:24;14.10;99.90
57843;DHT22;43673;51.058;3.734;2022-09-17T20:09:00;14.10;99.90
57843;DHT22;43673;51.058;3.734;2022-09-17T20:11:29;14.10;99.90
57843;DHT22;43673;51.058;3.734;2022-09-17T20:13:59;14.10;99.90
57843;DHT22;43673;51.058;3.734;2022-09-17T20:16:35;14.10;99.90
57843;DHT22;43673;51.058;3.734;2022-09-17T20:19:02;14.10;99.90
57843;DHT22;43673;51.058;3.734;2022-09-17T20:24:48;14.10;99.90
57843;DHT22;43673;51.058;3.734;2022-09-17T20:38:32;14.00;99.90
57843;DHT22;43673;51.058;3.734;2022-09-17T20:41:03;14.10;99.90
57843;DHT22;43673;51.058;3.734;2022-09-17T20:43:36;14.20;99.90
57843;DHT22;43673;51.058;3.734;2022-09-17T20:46:02;14.20;99.90
57843;DHT22;43673;51.058;3.734;2022-09-17T20:48:29;14.30;99.90
57843;DHT22;43673;51.058;3.734;2022-09-17T20:51:00;14.30;99.90
57843;DHT22;43673;51.058;3.734;2022-09-17T20:53:29;14.30;99.90
57843;DHT22;43673;51.058;3.734;2022-09-17T20:56:00;14.20;99.90
57843;DHT22;43673;51.058;3.734;2022-09-17T20:58:28;14.20;99.90
57843;DHT22;43673;51.058;3.734;2022-09-17T21:01:25;14.30;99.90
57843;DHT22;43673;51.058;3.734;2022-09-17T21:04:05;14.10;99.90
57843;DHT22;43673;51.058;3.734;2022-09-17T21:06:34;14.30;99.90
57843;DHT22;43673;51.058;3.734;2022-09-17T21:09:00;14.30;99.90
57843;DHT22;43673;51.058;3.734;2022-09-17T21:23:07;14.20;99.90
57843;DHT22;43673;51.058;3.734;2022-09-17T21:25:33;14.20;99.90
57843;DHT22;43673;51.058;3.734;2022-09-17T21:27:58;14.10;99.90
57843;DHT22;43673;51.058;3.734;2022-09-17T21:30:24;14.10;99.90
57843;DHT22;43673;51.058;3.734;2022-09-17T21:32:51;14.10;99.90
57843;DHT22;43673;51.058;3.734;2022-09-17T21:35:17;14.00;99.90
57843;DHT22;43673;51.058;3.734;2022-09-17T21:37:43;13.90;99.90
57843;DHT22;43673;51.058;3.734;2022-09-17T21:40:09;13.90;99.90
57843;DHT22;43673;51.058;3.734;2022-09-17T21:42:35;13.90;99.90
57843;DHT22;43673;51.058;3.734;2022-09-17T21:45:04;13.90;99.90
57843;DHT22;43673;51.058;3.734;2022-09-17T21:47:31;14.00;99.90
57843;DHT22;43673;51.058;3.734;2022-09-17T21:49:57;14.00;99.90
57843;DHT22;43673;51.058;3.734;2022-09-17T21:52:22;14.00;99.90
57843;DHT22;43673;51.058;3.734;2022-09-17T21:54:48;14.00;99.90
57843;DHT22;43673;51.058;3.734;2022-09-17T21:57:14;13.90;99.90
57843;DHT22;43673;51.058;3.734;2022-09-17T21:59:39;13.80;99.90
57843;DHT22;43673;51.058;3.734;2022-09-17T22:02:05;13.80;99.90
57843;DHT22;43673;51.058;3.734;2022-09-17T22:04:31;13.80;99.90
57843;DHT22;43673;51.058;3.734;2022-09-17T22:09:57;13.90;99.90
57843;DHT22;43673;51.058;3.734;2022-09-17T22:12:22;13.90;99.90
57843;DHT22;43673;51.058;3.734;2022-09-17T22:14:48;13.90;99.90
57843;DHT22;43673;51.058;3.734;2022-09-17T22:17:14;14.00;99.90
57843;DHT22;43673;51.058;3.734;2022-09-17T22:19:40;14.00;99.90
57843;DHT22;43673;51.058;3.734;2022-09-17T22:22:06;14.10;99.90
57843;DHT22;43673;51.058;3.734;2022-09-17T22:24:32;14.20;99.90
57843;DHT22;43673;51.058;3.734;2022-09-17T22:26:57;14.30;99.90
57843;DHT22;43673;51.058;3.734;2022-09-17T22:29:24;14.30;99.90
57843;DHT22;43673;51.058;3.734;2022-09-17T22:31:50;14.30;99.90
57843;DHT22;43673;51.058;3.734;2022-09-17T22:34:19;14.30;99.90
57843;DHT22;43673;51.058;3.734;2022-09-17T22:36:46;14.30;99.90
57843;DHT22;43673;51.058;3.734;2022-09-17T22:39:14;14.20;99.90
57843;DHT22;43673;51.058;3.734;2022-09-17T22:41:40;14.40;99.90
57843;DHT22;43673;51.058;3.734;2022-09-17T22:44:12;14.50;99.90
57843;DHT22;43673;51.058;3.734;2022-09-17T22:46:38;14.50;99.90
57843;DHT22;43673;51.058;3.734;2022-09-17T22:49:05;14.50;99.90
57843;DHT22;43673;51.058;3.734;2022-09-17T22:51:31;14.60;99.90
57843;DHT22;43673;51.058;3.734;2022-09-17T22:53:57;14.60;99.90
57843;DHT22;43673;51.058;3.734;2022-09-17T22:56:24;14.70;99.90
57843;DHT22;43673;51.058;3.734;2022-09-17T22:58:51;14.60;99.90
57843;DHT22;43673;51.058;3.734;2022-09-17T23:01:22;14.60;99.90
57843;DHT22;43673;51.058;3.734;2022-09-17T23:03:50;14.60;99.90
57843;DHT22;43673;51.058;3.734;2022-09-17T23:06:19;14.60;99.90
57843;DHT22;43673;51.058;3.734;2022-09-17T23:08:45;14.70;99.90
57843;DHT22;43673;51.058;3.734;2022-09-17T23:11:22;14.70;99.90
57843;DHT22;43673;51.058;3.734;2022-09-17T23:13:48;14.70;99.90
57843;DHT22;43673;51.058;3.734;2022-09-17T23:16:15;14.70;99.90
57843;DHT22;43673;51.058;3.734;2022-09-17T23:18:40;14.60;99.90
57843;DHT22;43673;51.058;3.734;2022-09-17T23:21:11;14.60;99.90
57843;DHT22;43673;51.058;3.734;2022-09-17T23:23:42;14.60;99.90
57843;DHT22;43673;51.058;3.734;2022-09-17T23:26:12;14.60;99.90
57843;DHT22;43673;51.058;3.734;2022-09-17T23:28:38;14.60;99.90
57843;DHT22;43673;51.058;3.734;2022-09-17T23:31:19;14.70;99.90
57843;DHT22;43673;51.058;3.734;2022-09-17T23:33:45;14.60;99.90
57843;DHT22;43673;51.058;3.734;2022-09-17T23:36:16;14.50;99.90
57843;DHT22;43673;51.058;3.734;2022-09-17T23:38:45;14.50;99.90
57843;DHT22;43673;51.058;3.734;2022-09-17T23:41:31;14.40;99.90
57843;DHT22;43673;51.058;3.734;2022-09-17T23:43:59;14.30;99.90
57843;DHT22;43673;51.058;3.734;2022-09-17T23:46:26;14.20;99.90
57843;DHT22;43673;51.058;3.734;2022-09-17T23:48:53;14.10;99.90
57843;DHT22;43673;51.058;3.734;2022-09-17T23:51:20;14.10;99.90
57843;DHT22;43673;51.058;3.734;2022-09-17T23:53:46;14.00;99.90
57843;DHT22;43673;51.058;3.734;2022-09-17T23:56:18;13.90;99.90
57843;DHT22;43673;51.058;3.734;2022-09-17T23:58:45;13.80;99.90
